sensor_id;sensor_type;location;lat;lon;timestamp;pressure;altitude;pressure_sealevel;temperature;humidity
41202;BME280;26936;50.524;8.684;2023-03-19T00:00:54;99018.47;;;10.29;100.00
41202;BME280;26936;50.524;8.684;2023-03-19T00:03:20;99026.25;;;10.25;100.00
41202;BME280;26936;50.524;8.684;2023-03-19T00:05:52;99034.22;;;10.27;100.00
41202;BME280;26936;50.524;8.684;2023-03-19T00:08:17;99042.91;;;10.20;100.00
41202;BME280;26936;50.524;8.684;2023-03-19T00:10:42;99031.47;;;10.14;100.00
41202;BME280;26936;50.524;8.684;2023-03-19T00:13:09;99031.28;;;10.09;100.00
41202;BME280;26936;50.524;8.684;2023-03-19T00:15:34;99038.16;;;10.08;100.00
41202;BME280;26936;50.524;8.684;2023-03-19T00:18:00;99033.97;;;10.12;100.00
41202;BME280;26936;50.524;8.684;2023-03-19T00:20:25;99031.63;;;10.11;100.00
41202;BME280;26936;50.524;8.684;2023-03-19T00:22:51;99032.16;;;10.06;100.00
41202;BME280;26936;50.524;8.684;2023-03-19T00:25:16;99031.28;;;10.09;100.00
41202;BME280;26936;50.524;8.684;2023-03-19T00:27:41;99037.00;;;10.05;100.00
41202;BME280;26936;50.524;8.684;2023-03-19T00:30:08;99031.38;;;10.05;100.00
41202;BME280;26936;50.524;8.684;2023-03-19T00:32:35;99025.44;;;10.03;100.00
41202;BME280;26936;50.524;8.684;2023-03-19T00:35:01;99029.16;;;10.00;100.00
41202;BME280;26936;50.524;8.684;2023-03-19T00:37:26;99026.03;;;9.98;100.00
41202;BME280;26936;50.524;8.684;2023-03-19T00:39:51;99028.38;;;10.00;100.00
41202;BME280;26936;50.524;8.684;2023-03-19T00:42:17;99030.06;;;9.97;100.00
41202;BME280;26936;50.524;8.684;2023-03-19T00:44:42;99037.06;;;9.93;100.00
41202;BME280;26936;50.524;8.684;2023-03-19T00:47:07;99028.75;;;9.89;100.00
41202;BME280;26936;50.524;8.684;2023-03-19T00:49:33;99028.41;;;9.87;100.00
41202;BME280;26936;50.524;8.684;2023-03-19T00:51:58;99024.84;;;9.87;100.00
41202;BME280;26936;50.524;8.684;2023-03-19T00:54:23;99029.34;;;9.84;100.00
41202;BME280;26936;50.524;8.684;2023-03-19T00:56:48;99041.38;;;9.85;100.00
41202;BME280;26936;50.524;8.684;2023-03-19T00:59:14;99037.31;;;9.86;100.00
41202;BME280;26936;50.524;8.684;2023-03-19T01:01:39;99034.19;;;9.84;100.00
41202;BME280;26936;50.524;8.684;2023-03-19T01:04:04;99037.44;;;9.82;100.00
41202;BME280;26936;50.524;8.684;2023-03-19T01:06:30;99029.78;;;9.83;100.00
41202;BME280;26936;50.524;8.684;2023-03-19T01:08:55;99031.97;;;9.79;100.00
41202;BME280;26936;50.524;8.684;2023-03-19T01:11:20;99027.69;;;9.74;100.00
41202;BME280;26936;50.524;8.684;2023-03-19T01:13:46;99028.03;;;9.76;100.00
41202;BME280;26936;50.524;8.684;2023-03-19T01:16:12;99027.91;;;9.80;100.00
41202;BME280;26936;50.524;8.684;2023-03-19T01:18:37;99019.78;;;9.82;100.00
41202;BME280;26936;50.524;8.684;2023-03-19T01:21:03;99020.56;;;9.82;100.00
41202;BME280;26936;50.524;8.684;2023-03-19T01:23:29;99016.66;;;9.80;100.00
41202;BME280;26936;50.524;8.684;2023-03-19T01:25:55;99023.66;;;9.75;100.00
41202;BME280;26936;50.524;8.684;2023-03-19T01:28:21;99020.03;;;9.75;100.00
41202;BME280;26936;50.524;8.684;2023-03-19T01:30:47;99013.97;;;9.76;100.00
41202;BME280;26936;50.524;8.684;2023-03-19T01:33:13;99013.97;;;9.76;100.00
41202;BME280;26936;50.524;8.684;2023-03-19T01:35:38;99017.91;;;9.79;100.00
41202;BME280;26936;50.524;8.684;2023-03-19T01:38:04;99017.75;;;9.82;100.00
41202;BME280;26936;50.524;8.684;2023-03-19T01:40:30;99021.69;;;9.85;100.00
41202;BME280;26936;50.524;8.684;2023-03-19T01:43:20;99020.91;;;9.84;100.00
41202;BME280;26936;50.524;8.684;2023-03-19T01:45:46;99023.25;;;9.86;100.00
41202;BME280;26936;50.524;8.684;2023-03-19T01:48:45;99028.41;;;9.87;100.00
41202;BME280;26936;50.524;8.684;2023-03-19T01:51:14;99027.66;;;9.87;100.00
41202;BME280;26936;50.524;8.684;2023-03-19T01:53:43;99027.66;;;9.87;100.00
41202;BME280;26936;50.524;8.684;2023-03-19T01:56:16;99029.66;;;9.86;100.00
41202;BME280;26936;50.524;8.684;2023-03-19T01:58:45;99024.16;;;9.83;100.00
41202;BME280;26936;50.524;8.684;2023-03-19T02:01:12;99029.16;;;9.79;100.00
41202;BME280;26936;50.524;8.684;2023-03-19T02:03:38;99025.31;;;9.73;100.00
41202;BME280;26936;50.524;8.684;2023-03-19T02:06:05;99032.00;;;9.66;100.00
41202;BME280;26936;50.524;8.684;2023-03-19T02:08:31;99040.13;;;9.64;100.00
41202;BME280;26936;50.524;8.684;2023-03-19T02:10:57;99035.38;;;9.61;100.00
41202;BME280;26936;50.524;8.684;2023-03-19T02:13:25;99038.41;;;9.67;100.00
41202;BME280;26936;50.524;8.684;2023-03-19T02:15:51;99031.06;;;9.69;100.00
41202;BME280;26936;50.524;8.684;2023-03-19T02:18:17;99028.13;;;9.73;100.00
41202;BME280;26936;50.524;8.684;2023-03-19T02:20:57;99024.22;;;9.70;100.00
41202;BME280;26936;50.524;8.684;2023-03-19T02:23:54;99025.91;;;9.68;100.00
41202;BME280;26936;50.524;8.684;2023-03-19T02:26:25;99019.53;;;9.67;100.00
41202;BME280;26936;50.524;8.684;2023-03-19T02:28:52;99021.53;;;9.67;100.00
41202;BME280;26936;50.524;8.684;2023-03-19T02:31:18;99028.41;;;9.66;100.00
41202;BME280;26936;50.524;8.684;2023-03-19T02:33:56;99021.66;;;9.63;100.00
41202;BME280;26936;50.524;8.684;2023-03-19T02:36:22;99029.75;;;9.61;100.00
41202;BME280;26936;50.524;8.684;2023-03-19T02:38:47;99023.03;;;9.58;100.00
41202;BME280;26936;50.524;8.684;2023-03-19T02:41:12;99026.63;;;9.59;100.00
41202;BME280;26936;50.524;8.684;2023-03-19T02:43:39;99026.28;;;9.57;100.00
41202;BME280;26936;50.524;8.684;2023-03-19T02:46:08;99043.63;;;9.55;100.00
41202;BME280;26936;50.524;8.684;2023-03-19T02:48:35;99044.53;;;9.52;100.00
41202;BME280;26936;50.524;8.684;2023-03-19T02:51:01;99042.59;;;9.49;100.00
41202;BME280;26936;50.524;8.684;2023-03-19T02:53:26;99044.31;;;9.47;100.00
41202;BME280;26936;50.524;8.684;2023-03-19T02:55:52;99047.56;;;9.45;100.00
41202;BME280;26936;50.524;8.684;2023-03-19T02:58:18;99045.44;;;9.37;100.00
41202;BME280;26936;50.524;8.684;2023-03-19T03:00:43;99046.91;;;9.41;100.00
41202;BME280;26936;50.524;8.684;2023-03-19T03:03:09;99041.09;;;9.36;100.00
41202;BME280;26936;50.524;8.684;2023-03-19T03:05:35;99039.03;;;9.36;100.00
41202;BME280;26936;50.524;8.684;2023-03-19T03:08:01;99045.91;;;9.35;100.00
41202;BME280;26936;50.524;8.684;2023-03-19T03:10:27;99037.38;;;9.39;100.00
41202;BME280;26936;50.524;8.684;2023-03-19T03:12:52;99049.75;;;9.29;100.00
41202;BME280;26936;50.524;8.684;2023-03-19T03:15:18;99055.13;;;9.23;100.00
41202;BME280;26936;50.524;8.684;2023-03-19T03:17:44;99040.97;;;9.27;100.00
41202;BME280;26936;50.524;8.684;2023-03-19T03:20:11;99039.88;;;9.24;100.00
41202;BME280;26936;50.524;8.684;2023-03-19T03:22:37;99035.03;;;9.25;100.00
41202;BME280;26936;50.524;8.684;2023-03-19T03:25:03;99036.25;;;9.24;100.00
41202;BME280;26936;50.524;8.684;2023-03-19T03:27:29;99046.41;;;9.21;100.00
41202;BME280;26936;50.524;8.684;2023-03-19T03:29:54;99042.00;;;9.20;100.00
41202;BME280;26936;50.524;8.684;2023-03-19T03:32:19;99043.25;;;9.19;100.00
41202;BME280;26936;50.524;8.684;2023-03-19T03:34:45;99044.81;;;9.20;100.00
41202;BME280;26936;50.524;8.684;2023-03-19T03:37:11;99038.72;;;9.22;100.00
41202;BME280;26936;50.524;8.684;2023-03-19T03:39:36;99034.94;;;9.16;100.00
41202;BME280;26936;50.524;8.684;2023-03-19T03:42:02;99038.31;;;9.11;100.00
41202;BME280;26936;50.524;8.684;2023-03-19T03:44:27;99045.06;;;9.13;100.00
41202;BME280;26936;50.524;8.684;2023-03-19T03:46:53;99047.06;;;9.13;100.00
41202;BME280;26936;50.524;8.684;2023-03-19T03:49:18;99047.53;;;9.11;100.00
41202;BME280;26936;50.524;8.684;2023-03-19T03:51:43;99050.22;;;9.15;100.00
41202;BME280;26936;50.524;8.684;2023-03-19T03:54:09;99051.91;;;9.12;100.00
41202;BME280;26936;50.524;8.684;2023-03-19T03:56:34;99051.25;;;9.08;100.00
41202;BME280;26936;50.524;8.684;2023-03-19T03:59:00;99059.78;;;9.05;100.00
41202;BME280;26936;50.524;8.684;2023-03-19T04:01:26;99063.69;;;9.07;100.00
41202;BME280;26936;50.524;8.684;2023-03-19T04:03:51;99054.63;;;9.03;100.00
41202;BME280;26936;50.524;8.684;2023-03-19T04:06:18;99051.91;;;9.00;100.00
41202;BME280;26936;50.524;8.684;2023-03-19T04:08:45;99053.94;;;8.99;100.00
41202;BME280;26936;50.524;8.684;2023-03-19T04:11:11;99059.88;;;9.01;100.00
41202;BME280;26936;50.524;8.684;2023-03-19T04:13:37;99067.06;;;9.02;100.00
41202;BME280;26936;50.524;8.684;2023-03-19T04:16:03;99067.63;;;8.97;100.00
41202;BME280;26936;50.524;8.684;2023-03-19T04:18:29;99065.50;;;9.01;100.00
41202;BME280;26936;50.524;8.684;2023-03-19T04:20:54;99072.22;;;9.04;100.00
41202;BME280;26936;50.524;8.684;2023-03-19T04:23:20;99067.97;;;8.99;100.00
41202;BME280;26936;50.524;8.684;2023-03-19T04:25:45;99072.47;;;8.97;100.00
41202;BME280;26936;50.524;8.684;2023-03-19T04:28:10;99075.75;;;8.95;100.00
41202;BME280;26936;50.524;8.684;2023-03-19T04:30:36;99077.75;;;8.95;100.00
41202;BME280;26936;50.524;8.684;2023-03-19T04:33:01;99079.75;;;8.94;100.00
41202;BME280;26936;50.524;8.684;2023-03-19T04:35:28;99077.31;;;8.96;100.00
41202;BME280;26936;50.524;8.684;2023-03-19T04:37:54;99080.91;;;8.97;100.00
41202;BME280;26936;50.524;8.684;2023-03-19T04:40:19;99087.44;;;8.94;100.00
41202;BME280;26936;50.524;8.684;2023-03-19T04:42:44;99094.72;;;8.91;100.00
41202;BME280;26936;50.524;8.684;2023-03-19T04:45:10;99086.38;;;8.88;100.00
41202;BME280;26936;50.524;8.684;2023-03-19T04:47:35;99096.97;;;8.84;100.00
41202;BME280;26936;50.524;8.684;2023-03-19T04:50:01;99091.69;;;8.86;100.00
41202;BME280;26936;50.524;8.684;2023-03-19T04:52:26;99101.69;;;8.87;100.00
41202;BME280;26936;50.524;8.684;2023-03-19T04:54:53;99100.13;;;8.86;100.00
41202;BME280;26936;50.524;8.684;2023-03-19T04:57:18;99096.16;;;8.83;100.00
41202;BME280;26936;50.524;8.684;2023-03-19T04:59:43;99091.78;;;8.82;100.00
41202;BME280;26936;50.524;8.684;2023-03-19T05:02:10;99092.25;;;8.81;100.00
41202;BME280;26936;50.524;8.684;2023-03-19T05:04:35;99101.13;;;8.79;100.00
41202;BME280;26936;50.524;8.684;2023-03-19T05:07:01;99105.03;;;8.82;100.00
41202;BME280;26936;50.524;8.684;2023-03-19T05:09:26;99103.03;;;8.95;100.00
41202;BME280;26936;50.524;8.684;2023-03-19T05:11:52;99107.06;;;8.81;100.00
41202;BME280;26936;50.524;8.684;2023-03-19T05:14:17;99105.81;;;8.70;100.00
41202;BME280;26936;50.524;8.684;2023-03-19T05:16:42;99105.13;;;8.66;100.00
41202;BME280;26936;50.524;8.684;2023-03-19T05:19:08;99109.28;;;8.61;100.00
41202;BME280;26936;50.524;8.684;2023-03-19T05:21:34;99103.31;;;8.59;100.00
41202;BME280;26936;50.524;8.684;2023-03-19T05:23:59;99116.22;;;8.57;100.00
41202;BME280;26936;50.524;8.684;2023-03-19T05:26:25;99111.94;;;8.52;100.00
41202;BME280;26936;50.524;8.684;2023-03-19T05:28:50;99112.84;;;8.49;100.00
41202;BME280;26936;50.524;8.684;2023-03-19T05:31:15;99113.28;;;8.48;100.00
41202;BME280;26936;50.524;8.684;2023-03-19T05:33:40;99104.63;;;8.42;100.00
41202;BME280;26936;50.524;8.684;2023-03-19T05:36:06;99100.78;;;8.36;100.00
41202;BME280;26936;50.524;8.684;2023-03-19T05:38:31;99115.72;;;8.33;100.00
41202;BME280;26936;50.524;8.684;2023-03-19T05:41:02;99115.38;;;8.31;100.00
41202;BME280;26936;50.524;8.684;2023-03-19T05:43:28;99115.91;;;8.26;100.00
41202;BME280;26936;50.524;8.684;2023-03-19T05:45:53;99115.56;;;8.24;100.00
41202;BME280;26936;50.524;8.684;2023-03-19T05:48:18;99107.75;;;8.32;100.00
41202;BME280;26936;50.524;8.684;2023-03-19T05:50:44;99116.06;;;8.35;100.00
41202;BME280;26936;50.524;8.684;2023-03-19T05:53:09;99114.81;;;8.36;100.00
41202;BME280;26936;50.524;8.684;2023-03-19T05:55:35;99115.94;;;8.39;100.00
41202;BME280;26936;50.524;8.684;2023-03-19T05:58:00;99133.47;;;8.43;100.00
41202;BME280;26936;50.524;8.684;2023-03-19T06:00:26;99123.50;;;8.42;100.00
41202;BME280;26936;50.524;8.684;2023-03-19T06:02:51;99136.28;;;8.43;100.00
41202;BME280;26936;50.524;8.684;2023-03-19T06:05:18;99126.19;;;8.45;100.00
41202;BME280;26936;50.524;8.684;2023-03-19T06:07:44;99137.75;;;8.47;100.00
41202;BME280;26936;50.524;8.684;2023-03-19T06:10:10;99138.91;;;8.50;100.00
41202;BME280;26936;50.524;8.684;2023-03-19T06:12:35;99142.81;;;8.52;100.00
41202;BME280;26936;50.524;8.684;2023-03-19T06:15:01;99136.75;;;8.54;100.00
41202;BME280;26936;50.524;8.684;2023-03-19T06:17:26;99140.25;;;8.58;100.00
41202;BME280;26936;50.524;8.684;2023-03-19T06:19:51;99131.41;;;8.59;100.00
41202;BME280;26936;50.524;8.684;2023-03-19T06:22:17;99137.47;;;8.58;100.00
41202;BME280;26936;50.524;8.684;2023-03-19T06:24:42;99136.22;;;8.59;100.00
41202;BME280;26936;50.524;8.684;2023-03-19T06:27:07;99143.28;;;8.63;100.00
41202;BME280;26936;50.524;8.684;2023-03-19T06:29:33;99151.75;;;8.76;100.00
41202;BME280;26936;50.524;8.684;2023-03-19T06:31:59;99152.22;;;8.87;100.00
41202;BME280;26936;50.524;8.684;2023-03-19T06:34:24;99143.94;;;9.08;100.00
41202;BME280;26936;50.524;8.684;2023-03-19T06:36:50;99148.31;;;9.09;100.00
41202;BME280;26936;50.524;8.684;2023-03-19T06:39:17;99152.72;;;9.23;100.00
41202;BME280;26936;50.524;8.684;2023-03-19T06:41:43;99152.59;;;9.26;100.00
41202;BME280;26936;50.524;8.684;2023-03-19T06:44:08;99148.53;;;9.40;100.00
41202;BME280;26936;50.524;8.684;2023-03-19T06:46:33;99152.50;;;9.42;100.00
41202;BME280;26936;50.524;8.684;2023-03-19T06:48:58;99157.84;;;9.49;100.00
41202;BME280;26936;50.524;8.684;2023-03-19T06:51:24;99162.47;;;9.56;100.00
41202;BME280;26936;50.524;8.684;2023-03-19T06:53:52;99159.09;;;9.61;100.00
41202;BME280;26936;50.524;8.684;2023-03-19T06:56:17;99166.84;;;9.70;100.00
41202;BME280;26936;50.524;8.684;2023-03-19T06:58:42;99158.63;;;9.75;100.00
41202;BME280;26936;50.524;8.684;2023-03-19T07:01:07;99160.31;;;9.85;100.00
41202;BME280;26936;50.524;8.684;2023-03-19T07:03:33;99164.22;;;9.88;100.00
41202;BME280;26936;50.524;8.684;2023-03-19T07:05:58;99171.75;;;9.91;100.00
41202;BME280;26936;50.524;8.684;2023-03-19T07:08:23;99176.72;;;9.87;100.00
41202;BME280;26936;50.524;8.684;2023-03-19T07:10:53;99178.28;;;9.88;100.00
41202;BME280;26936;50.524;8.684;2023-03-19T07:13:19;99182.09;;;9.94;100.00
41202;BME280;26936;50.524;8.684;2023-03-19T07:15:45;99185.59;;;9.98;100.00
41202;BME280;26936;50.524;8.684;2023-03-19T07:18:11;99194.91;;;10.07;100.00
41202;BME280;26936;50.524;8.684;2023-03-19T07:20:36;99193.25;;;10.10;100.00
41202;BME280;26936;50.524;8.684;2023-03-19T07:23:01;99185.56;;;10.23;100.00
41202;BME280;26936;50.524;8.684;2023-03-19T07:25:27;99186.00;;;10.21;100.00
41202;BME280;26936;50.524;8.684;2023-03-19T07:27:52;99183.38;;;10.27;100.00
41202;BME280;26936;50.524;8.684;2023-03-19T07:30:18;99188.50;;;10.19;100.00
41202;BME280;26936;50.524;8.684;2023-03-19T07:32:43;99192.41;;;10.22;100.00
41202;BME280;26936;50.524;8.684;2023-03-19T07:35:08;99186.91;;;10.18;100.00
41202;BME280;26936;50.524;8.684;2023-03-19T07:37:34;99188.81;;;10.21;100.00
41202;BME280;26936;50.524;8.684;2023-03-19T07:40:00;99190.91;;;10.30;100.00
41202;BME280;26936;50.524;8.684;2023-03-19T07:42:26;99187.66;;;10.31;100.00
41202;BME280;26936;50.524;8.684;2023-03-19T07:44:51;99200.22;;;10.18;100.00
41202;BME280;26936;50.524;8.684;2023-03-19T07:47:17;99202.41;;;10.35;100.00
41202;BME280;26936;50.524;8.684;2023-03-19T07:49:42;99199.81;;;10.28;100.00
41202;BME280;26936;50.524;8.684;2023-03-19T07:52:08;99198.59;;;10.29;100.00
41202;BME280;26936;50.524;8.684;2023-03-19T07:54:33;99201.75;;;10.53;100.00
41202;BME280;26936;50.524;8.684;2023-03-19T07:56:59;99200.53;;;10.54;100.00
41202;BME280;26936;50.524;8.684;2023-03-19T07:59:25;99205.50;;;10.50;100.00
41202;BME280;26936;50.524;8.684;2023-03-19T08:01:50;99203.78;;;10.52;100.00
41202;BME280;26936;50.524;8.684;2023-03-19T08:04:16;99213.13;;;10.62;100.00
41202;BME280;26936;50.524;8.684;2023-03-19T08:06:41;99209.97;;;10.60;100.00
41202;BME280;26936;50.524;8.684;2023-03-19T08:09:07;99221.22;;;10.60;100.00
41202;BME280;26936;50.524;8.684;2023-03-19T08:11:33;99223.34;;;10.68;100.00
41202;BME280;26936;50.524;8.684;2023-03-19T08:13:58;99218.34;;;10.72;100.00
41202;BME280;26936;50.524;8.684;2023-03-19T08:16:24;99218.88;;;10.80;100.00
41202;BME280;26936;50.524;8.684;2023-03-19T08:18:49;99224.13;;;10.90;100.00
41202;BME280;26936;50.524;8.684;2023-03-19T08:21:15;99224.56;;;11.11;100.00
41202;BME280;26936;50.524;8.684;2023-03-19T08:23:41;99216.09;;;11.32;100.00
41202;BME280;26936;50.524;8.684;2023-03-19T08:26:06;99222.13;;;11.52;100.00
41202;BME280;26936;50.524;8.684;2023-03-19T08:28:32;99232.56;;;11.64;100.00
41202;BME280;26936;50.524;8.684;2023-03-19T08:31:13;99230.75;;;11.88;99.14
41202;BME280;26936;50.524;8.684;2023-03-19T08:33:39;99225.03;;;12.19;98.15
41202;BME280;26936;50.524;8.684;2023-03-19T08:36:07;99220.84;;;12.42;96.78
41202;BME280;26936;50.524;8.684;2023-03-19T08:38:33;99223.22;;;12.52;95.25
41202;BME280;26936;50.524;8.684;2023-03-19T08:40:58;99224.16;;;12.58;95.17
41202;BME280;26936;50.524;8.684;2023-03-19T08:43:27;99221.47;;;12.46;95.17
41202;BME280;26936;50.524;8.684;2023-03-19T08:45:52;99222.91;;;12.68;92.54
41202;BME280;26936;50.524;8.684;2023-03-19T08:48:17;99222.41;;;12.88;89.56
41202;BME280;26936;50.524;8.684;2023-03-19T08:50:43;99232.78;;;12.91;90.96
41202;BME280;26936;50.524;8.684;2023-03-19T08:53:08;99229.97;;;12.64;91.38
41202;BME280;26936;50.524;8.684;2023-03-19T08:55:33;99224.78;;;12.71;93.55
41202;BME280;26936;50.524;8.684;2023-03-19T08:57:58;99225.09;;;12.46;93.88
41202;BME280;26936;50.524;8.684;2023-03-19T09:00:24;99221.19;;;12.71;93.45
41202;BME280;26936;50.524;8.684;2023-03-19T09:02:49;99224.78;;;12.89;94.60
41202;BME280;26936;50.524;8.684;2023-03-19T09:05:14;99231.84;;;13.12;92.52
41202;BME280;26936;50.524;8.684;2023-03-19T09:07:40;99232.16;;;13.23;90.61
41202;BME280;26936;50.524;8.684;2023-03-19T09:10:06;99227.50;;;13.52;90.28
41202;BME280;26936;50.524;8.684;2023-03-19T09:12:31;99227.81;;;13.54;87.65
41202;BME280;26936;50.524;8.684;2023-03-19T09:14:57;99233.41;;;13.22;90.64
41202;BME280;26936;50.524;8.684;2023-03-19T09:17:22;99234.63;;;13.39;91.02
41202;BME280;26936;50.524;8.684;2023-03-19T09:19:47;99236.22;;;13.31;88.81
41202;BME280;26936;50.524;8.684;2023-03-19T09:22:12;99241.25;;;13.36;87.95
41202;BME280;26936;50.524;8.684;2023-03-19T09:24:38;99235.25;;;13.34;88.17
41202;BME280;26936;50.524;8.684;2023-03-19T09:27:03;99240.63;;;13.23;88.82
41202;BME280;26936;50.524;8.684;2023-03-19T09:29:28;99251.00;;;12.81;91.64
41202;BME280;26936;50.524;8.684;2023-03-19T09:31:54;99243.31;;;12.81;93.20
41202;BME280;26936;50.524;8.684;2023-03-19T09:34:19;99240.78;;;12.65;93.96
41202;BME280;26936;50.524;8.684;2023-03-19T09:36:45;99250.06;;;12.66;93.53
41202;BME280;26936;50.524;8.684;2023-03-19T09:39:10;99242.06;;;12.73;92.91
41202;BME280;26936;50.524;8.684;2023-03-19T09:44:36;99247.84;;;12.52;94.88
41202;BME280;26936;50.524;8.684;2023-03-19T09:47:31;99252.72;;;12.51;96.59
41202;BME280;26936;50.524;8.684;2023-03-19T09:49:59;99264.78;;;12.52;95.22
41202;BME280;26936;50.524;8.684;2023-03-19T09:55:51;99269.97;;;12.44;97.05
41202;BME280;26936;50.524;8.684;2023-03-19T09:57:52;99279.06;;;12.48;96.91
41202;BME280;26936;50.524;8.684;2023-03-19T10:13:47;99257.59;;;13.14;91.88
41202;BME280;26936;50.524;8.684;2023-03-19T10:16:27;99264.97;;;13.29;91.97
41202;BME280;26936;50.524;8.684;2023-03-19T10:18:57;99266.28;;;13.70;89.01
41202;BME280;26936;50.524;8.684;2023-03-19T10:21:40;99266.47;;;13.99;87.31
41202;BME280;26936;50.524;8.684;2023-03-19T10:24:21;99260.19;;;14.37;84.29
41202;BME280;26936;50.524;8.684;2023-03-19T10:26:47;99266.09;;;14.48;84.99
41202;BME280;26936;50.524;8.684;2023-03-19T10:29:17;99265.59;;;14.73;82.37
41202;BME280;26936;50.524;8.684;2023-03-19T10:34:41;99251.44;;;15.84;77.28
41202;BME280;26936;50.524;8.684;2023-03-19T10:39:48;99254.94;;;16.08;74.42
41202;BME280;26936;50.524;8.684;2023-03-19T10:47:44;99248.44;;;16.07;75.63
41202;BME280;26936;50.524;8.684;2023-03-19T10:50:18;99256.34;;;15.83;74.63
41202;BME280;26936;50.524;8.684;2023-03-19T10:52:49;99269.28;;;15.55;75.20
41202;BME280;26936;50.524;8.684;2023-03-19T10:55:22;99258.06;;;15.23;76.72
41202;BME280;26936;50.524;8.684;2023-03-19T10:57:49;99253.22;;;14.99;77.72
41202;BME280;26936;50.524;8.684;2023-03-19T11:00:21;99264.06;;;14.86;79.05
41202;BME280;26936;50.524;8.684;2023-03-19T11:02:51;99266.19;;;14.77;80.61
41202;BME280;26936;50.524;8.684;2023-03-19T11:08:17;99257.16;;;14.40;82.51
41202;BME280;26936;50.524;8.684;2023-03-19T11:10:45;99267.88;;;14.36;83.44
41202;BME280;26936;50.524;8.684;2023-03-19T11:13:23;99260.91;;;14.46;84.85
41202;BME280;26936;50.524;8.684;2023-03-19T11:15:51;99268.63;;;14.69;84.43
41202;BME280;26936;50.524;8.684;2023-03-19T11:18:22;99261.69;;;15.09;82.81
41202;BME280;26936;50.524;8.684;2023-03-19T11:20:58;99249.41;;;15.70;80.51
41202;BME280;26936;50.524;8.684;2023-03-19T11:23:28;99246.78;;;16.50;78.84
41202;BME280;26936;50.524;8.684;2023-03-19T11:25:54;99252.06;;;16.57;77.17
41202;BME280;26936;50.524;8.684;2023-03-19T11:28:24;99250.06;;;16.63;74.93
41202;BME280;26936;50.524;8.684;2023-03-19T11:42:38;99250.34;;;15.38;81.29
41202;BME280;26936;50.524;8.684;2023-03-19T11:45:24;99252.09;;;15.21;83.73
41202;BME280;26936;50.524;8.684;2023-03-19T11:53:28;99252.38;;;14.70;85.24
41202;BME280;26936;50.524;8.684;2023-03-19T11:56:01;99249.31;;;14.59;83.99
41202;BME280;26936;50.524;8.684;2023-03-19T12:06:55;99261.50;;;14.18;90.92
41202;BME280;26936;50.524;8.684;2023-03-19T12:09:52;99267.06;;;14.03;91.55
41202;BME280;26936;50.524;8.684;2023-03-19T12:12:25;99270.28;;;13.96;94.14
41202;BME280;26936;50.524;8.684;2023-03-19T12:15:15;99261.31;;;13.89;93.76
41202;BME280;26936;50.524;8.684;2023-03-19T12:17:59;99263.81;;;13.54;97.31
41202;BME280;26936;50.524;8.684;2023-03-19T12:20:45;99257.84;;;13.52;99.15
41202;BME280;26936;50.524;8.684;2023-03-19T12:26:05;99258.09;;;13.21;100.00
41202;BME280;26936;50.524;8.684;2023-03-19T12:36:32;99258.09;;;13.03;100.00
41202;BME280;26936;50.524;8.684;2023-03-19T12:39:10;99254.94;;;13.19;100.00
41202;BME280;26936;50.524;8.684;2023-03-19T12:41:40;99258.25;;;13.18;100.00
41202;BME280;26936;50.524;8.684;2023-03-19T12:44:28;99263.88;;;13.27;100.00
41202;BME280;26936;50.524;8.684;2023-03-19T12:47:01;99262.13;;;13.38;100.00
41202;BME280;26936;50.524;8.684;2023-03-19T12:49:32;99249.69;;;13.54;100.00
41202;BME280;26936;50.524;8.684;2023-03-19T12:52:09;99254.34;;;13.66;100.00
41202;BME280;26936;50.524;8.684;2023-03-19T12:54:42;99262.81;;;13.75;100.00
41202;BME280;26936;50.524;8.684;2023-03-19T12:57:16;99258.22;;;13.78;100.00
41202;BME280;26936;50.524;8.684;2023-03-19T12:59:53;99256.50;;;13.80;100.00
41202;BME280;26936;50.524;8.684;2023-03-19T13:02:43;99257.28;;;13.81;100.00
41202;BME280;26936;50.524;8.684;2023-03-19T13:06:02;99264.94;;;13.89;100.00
41202;BME280;26936;50.524;8.684;2023-03-19T13:08:16;99259.13;;;13.84;100.00
41202;BME280;26936;50.524;8.684;2023-03-19T13:10:43;99261.31;;;13.98;100.00
41202;BME280;26936;50.524;8.684;2023-03-19T13:13:37;99268.34;;;14.02;100.00
41202;BME280;26936;50.524;8.684;2023-03-19T13:19:19;99275.31;;;14.34;100.00
41202;BME280;26936;50.524;8.684;2023-03-19T13:21:51;99269.41;;;14.46;100.00
41202;BME280;26936;50.524;8.684;2023-03-19T13:24:23;99265.72;;;14.55;97.09
41202;BME280;26936;50.524;8.684;2023-03-19T13:26:50;99260.50;;;14.77;96.92
41202;BME280;26936;50.524;8.684;2023-03-19T13:29:19;99260.88;;;14.70;93.89
41202;BME280;26936;50.524;8.684;2023-03-19T13:31:47;99249.09;;;14.71;93.11
41202;BME280;26936;50.524;8.684;2023-03-19T13:36:44;99249.00;;;14.57;88.94
41202;BME280;26936;50.524;8.684;2023-03-19T13:39:17;99249.22;;;14.53;86.94
41202;BME280;26936;50.524;8.684;2023-03-19T13:46:46;99245.84;;;14.40;84.24
41202;BME280;26936;50.524;8.684;2023-03-19T13:51:57;99243.59;;;14.44;87.44
41202;BME280;26936;50.524;8.684;2023-03-19T13:54:38;99255.41;;;14.10;88.45
41202;BME280;26936;50.524;8.684;2023-03-19T13:57:18;99255.47;;;14.01;89.35
41202;BME280;26936;50.524;8.684;2023-03-19T13:59:46;99253.16;;;13.91;89.91
41202;BME280;26936;50.524;8.684;2023-03-19T14:07:27;99249.91;;;14.39;90.43
41202;BME280;26936;50.524;8.684;2023-03-19T14:12:29;99249.50;;;14.23;85.58
41202;BME280;26936;50.524;8.684;2023-03-19T14:17:36;99246.00;;;13.72;88.63
41202;BME280;26936;50.524;8.684;2023-03-19T14:25:26;99242.56;;;14.00;89.75
41202;BME280;26936;50.524;8.684;2023-03-19T14:27:59;99238.38;;;14.19;88.62
41202;BME280;26936;50.524;8.684;2023-03-19T14:30:30;99236.84;;;14.09;88.40
41202;BME280;26936;50.524;8.684;2023-03-19T14:33:00;99239.31;;;14.16;89.20
41202;BME280;26936;50.524;8.684;2023-03-19T14:35:31;99230.34;;;14.18;89.35
41202;BME280;26936;50.524;8.684;2023-03-19T14:37:58;99231.28;;;14.24;87.31
41202;BME280;26936;50.524;8.684;2023-03-19T14:40:31;99223.91;;;14.17;86.59